Página principal
METAR-TAF:

METAR-TAF

Aeroportos :

Kunming, China

latitude: 25-01N, longitude: 102-41E, altura: 1892 m

Observação actual do tempo

O boletim foi feito há 16 minutos, às 13:00 UTC
Vento 10 kt de sudoeste
Temperatura 13°C
Humidade 58%
Pressão 1021 hPa
Visibilidade 10 km ou mais
sem nuvens abaixo de 1500 metros e sem cumulonimbus

METAR: ZPPP 201300Z 22005MPS CAVOK 13/05 Q1021 NOSIG

Hora: 21:16 (13:16 UTC)

Previsão

O boletim foi feito há 6 horas e 11 minutos, às 07:05 UTC
Previsão válida de 20 às 12 UTC a 21 às 12 UTC
Vento 16 kt de sudoeste
Visibilidade 10 km ou mais
sem nuvens abaixo de 1500 metros e sem cumulonimbus

TAF: ZPPP 200705Z 2012/2112 22008MPS CAVOK TX19/2108Z TN08/2023Z

Observações e previsões do tempo de mais de 4000 aeroportos (mensagens METAR e TAF).

As estações disponíveis são os pontos amarelos e vermelhos sobre o mapa.

Mova o rato sobre o mapa para ver o nome da estação.

Depois clique no ponto para visualizar as observações e previsões meteorológicas.

Para alterar o mapa : clique nos botões verdes com uma cruz preta para aumentar o zoom; no botão verde com uma pitada de zoom; ou nas setas verdes para mapas adjacentes.


METAR-TAF: